createdAt,value
2023-03-13T00:01:53.932Z,20.00
2023-03-13T00:04:20.763Z,17.73
2023-03-13T00:06:47.456Z,19.10
2023-03-13T00:09:16.612Z,19.92
2023-03-13T00:11:45.848Z,13.48
2023-03-13T00:14:12.932Z,19.17
2023-03-13T00:16:39.861Z,10.57
2023-03-13T00:19:08.451Z,14.43
2023-03-13T00:21:37.651Z,16.70
2023-03-13T00:24:04.359Z,18.85
2023-03-13T00:26:31.100Z,18.73
2023-03-13T00:28:58.118Z,14.88
2023-03-13T00:31:30.725Z,23.42
2023-03-13T00:34:03.220Z,17.50
2023-03-13T00:36:33.013Z,8.40
2023-03-13T00:39:00.566Z,12.68
2023-03-13T00:41:32.480Z,12.30
2023-03-13T00:43:59.203Z,14.88
2023-03-13T00:46:28.165Z,20.40
2023-03-13T00:48:55.229Z,13.45
2023-03-13T00:51:23.917Z,14.40
2023-03-13T00:53:50.589Z,17.42
2023-03-13T00:56:18.864Z,10.73
2023-03-13T00:58:47.413Z,11.07
2023-03-13T01:01:24.695Z,11.50
2023-03-13T01:03:54.820Z,20.02
2023-03-13T01:06:24.979Z,15.13
2023-03-13T01:08:52.224Z,8.10
2023-03-13T01:11:40.131Z,8.05
2023-03-13T01:14:09.376Z,11.70
2023-03-13T01:16:37.551Z,13.68
2023-03-13T01:19:07.365Z,21.30
2023-03-13T01:21:34.655Z,16.52
2023-03-13T01:24:02.257Z,16.85
2023-03-13T01:26:29.412Z,17.25
2023-03-13T01:28:56.788Z,20.13
2023-03-13T01:31:32.493Z,18.10
2023-03-13T01:34:01.695Z,16.98
2023-03-13T01:36:29.248Z,11.60
2023-03-13T01:38:58.425Z,14.13
2023-03-13T01:41:26.743Z,18.75
2023-03-13T01:43:55.479Z,8.38
2023-03-13T01:46:25.397Z,17.10
2023-03-13T01:48:54.257Z,10.65
2023-03-13T01:51:41.944Z,12.20
2023-03-13T01:54:18.295Z,14.65
2023-03-13T01:56:47.944Z,20.40
2023-03-13T01:59:19.343Z,14.57
2023-03-13T02:01:49.196Z,16.83
2023-03-13T02:04:16.660Z,15.55
2023-03-13T02:06:46.741Z,10.48
2023-03-13T02:09:22.849Z,11.38
2023-03-13T02:12:06.610Z,12.05
2023-03-13T02:14:36.610Z,24.13
2023-03-13T02:17:05.025Z,19.65
2023-03-13T02:19:51.941Z,15.93
2023-03-13T02:22:55.051Z,14.10
2023-03-13T02:25:24.746Z,17.08
2023-03-13T02:27:55.114Z,16.70
2023-03-13T02:30:22.270Z,11.52
2023-03-13T02:32:49.762Z,12.80
2023-03-13T02:35:20.105Z,16.17
2023-03-13T02:38:20.106Z,19.20
2023-03-13T02:40:49.159Z,19.58
2023-03-13T02:43:26.337Z,19.55
2023-03-13T02:46:17.441Z,18.17
2023-03-13T02:48:47.776Z,22.08
2023-03-13T02:51:36.377Z,13.48
2023-03-13T02:54:11.004Z,10.88
2023-03-13T02:56:40.375Z,14.35
2023-03-13T02:59:07.730Z,21.63
2023-03-13T03:01:34.508Z,14.48
2023-03-13T03:04:01.140Z,16.33
2023-03-13T03:06:27.955Z,15.82
2023-03-13T03:08:54.805Z,14.18
2023-03-13T03:11:21.540Z,16.13
2023-03-13T03:13:48.210Z,10.02
2023-03-13T03:16:18.859Z,14.23
2023-03-13T03:18:46.103Z,15.80
2023-03-13T03:21:13.085Z,11.75
2023-03-13T03:23:39.737Z,14.43
2023-03-13T03:26:07.448Z,13.10
2023-03-13T03:28:34.341Z,11.82
2023-03-13T03:31:08.971Z,13.98
2023-03-13T03:33:36.029Z,15.93
2023-03-13T03:36:05.192Z,13.95
2023-03-13T03:38:31.932Z,6.43
2023-03-13T03:40:58.982Z,15.02
2023-03-13T03:43:25.658Z,11.68
2023-03-13T03:45:52.423Z,12.45
2023-03-13T03:48:19.237Z,13.70
2023-03-13T03:50:46.057Z,13.45
2023-03-13T03:53:12.650Z,9.25
2023-03-13T03:55:39.239Z,14.75
2023-03-13T03:58:06.025Z,16.92
2023-03-13T04:00:32.887Z,16.40
2023-03-13T04:02:59.751Z,8.05
2023-03-13T04:05:26.689Z,16.60
2023-03-13T04:07:53.446Z,16.48
2023-03-13T04:10:20.136Z,13.40
2023-03-13T04:12:47.256Z,15.13
2023-03-13T04:15:13.887Z,13.50
2023-03-13T04:17:40.722Z,11.70
2023-03-13T04:20:08.354Z,15.05
2023-03-13T04:22:34.963Z,20.88
2023-03-13T04:25:01.610Z,11.00
2023-03-13T04:27:28.577Z,12.70
2023-03-13T04:29:55.219Z,11.63
2023-03-13T04:32:21.884Z,9.82
2023-03-13T04:34:48.494Z,15.02
2023-03-13T04:37:15.161Z,9.50
2023-03-13T04:39:42.018Z,22.58
2023-03-13T04:42:10.662Z,13.05
2023-03-13T04:44:37.703Z,10.93
2023-03-13T04:47:05.059Z,19.15
2023-03-13T04:49:31.746Z,14.88
2023-03-13T04:51:58.450Z,14.07
2023-03-13T04:54:25.306Z,18.10
2023-03-13T04:56:52.184Z,21.17
2023-03-13T04:59:18.835Z,9.43
2023-03-13T05:01:46.335Z,7.82
2023-03-13T05:04:13.074Z,13.38
2023-03-13T05:06:39.864Z,17.50
2023-03-13T05:09:08.874Z,12.80
2023-03-13T05:11:35.745Z,8.07
2023-03-13T05:14:02.677Z,10.85
2023-03-13T05:16:29.267Z,16.38
2023-03-13T05:18:56.032Z,16.25
2023-03-13T05:21:22.783Z,6.47
2023-03-13T05:23:49.590Z,7.70
2023-03-13T05:26:16.269Z,11.23
2023-03-13T05:28:42.917Z,9.52
2023-03-13T05:31:09.585Z,8.77
2023-03-13T05:33:36.409Z,3.40
2023-03-13T05:36:03.298Z,10.68
2023-03-13T05:38:30.759Z,8.93
2023-03-13T05:40:57.413Z,8.77
2023-03-13T05:43:24.031Z,5.80
2023-03-13T05:45:50.861Z,4.47
2023-03-13T05:48:17.689Z,5.70
2023-03-13T05:50:44.446Z,12.55
2023-03-13T05:53:12.911Z,4.97
2023-03-13T05:55:39.593Z,6.90
2023-03-13T05:58:06.226Z,6.65
2023-03-13T06:00:32.811Z,1.67
2023-03-13T06:02:59.477Z,5.93
2023-03-13T06:05:26.184Z,2.53
2023-03-13T06:07:53.039Z,4.68
2023-03-13T06:10:19.864Z,5.38
2023-03-13T06:12:53.865Z,2.22
2023-03-13T06:15:20.715Z,9.52
2023-03-13T06:17:47.470Z,4.22
2023-03-13T06:20:14.473Z,5.38
2023-03-13T06:22:41.943Z,2.92
2023-03-13T06:25:09.101Z,3.42
2023-03-13T06:27:35.909Z,4.05
2023-03-13T06:30:03.370Z,4.35
2023-03-13T06:32:30.368Z,4.22
2023-03-13T06:34:57.341Z,1.15
2023-03-13T06:37:24.169Z,4.60
2023-03-13T06:39:52.541Z,1.77
2023-03-13T06:42:20.090Z,3.00
2023-03-13T06:44:46.706Z,2.85
2023-03-13T06:47:15.458Z,1.55
2023-03-13T06:49:42.268Z,4.82
2023-03-13T06:52:11.227Z,3.55
2023-03-13T06:54:39.839Z,2.22
2023-03-13T06:57:10.784Z,4.35
2023-03-13T06:59:37.485Z,1.95
2023-03-13T07:02:04.220Z,3.90
2023-03-13T07:04:32.770Z,1.60
2023-03-13T07:06:59.397Z,3.88
2023-03-13T07:09:28.570Z,2.03
2023-03-13T07:11:55.572Z,4.30
2023-03-13T07:14:22.110Z,2.47
2023-03-13T07:16:48.798Z,2.88
2023-03-13T07:19:15.963Z,4.10
2023-03-13T07:21:43.109Z,4.78
2023-03-13T07:24:10.083Z,2.20
2023-03-13T07:26:37.642Z,2.95
2023-03-13T07:29:06.426Z,5.97
2023-03-13T07:31:37.020Z,4.70
2023-03-13T07:34:03.720Z,3.55
2023-03-13T07:36:31.232Z,5.07
2023-03-13T07:38:58.313Z,2.17
2023-03-13T07:41:26.951Z,2.60
2023-03-13T07:43:53.600Z,2.97
2023-03-13T07:46:22.339Z,3.08
2023-03-13T07:48:49.147Z,2.20
2023-03-13T07:51:20.519Z,3.47
2023-03-13T07:53:50.582Z,5.78
2023-03-13T07:56:19.770Z,4.03
2023-03-13T07:58:46.691Z,2.88
2023-03-13T08:01:17.432Z,4.72
2023-03-13T08:03:45.336Z,6.93
2023-03-13T08:06:17.361Z,6.85
2023-03-13T08:08:44.382Z,5.07
2023-03-13T08:11:16.705Z,5.85
2023-03-13T08:13:46.105Z,5.10
2023-03-13T08:16:17.503Z,6.32
2023-03-13T08:18:49.488Z,5.15
2023-03-13T08:21:18.958Z,5.38
2023-03-13T08:23:46.018Z,6.53
2023-03-13T08:26:16.254Z,7.53
2023-03-13T08:28:44.895Z,5.22
2023-03-13T08:31:14.641Z,6.68
2023-03-13T08:33:43.295Z,7.10
2023-03-13T08:36:18.985Z,5.43
2023-03-13T08:38:47.420Z,6.07
2023-03-13T08:41:16.723Z,8.45
2023-03-13T08:43:43.810Z,5.53
2023-03-13T08:46:10.461Z,5.15
2023-03-13T08:48:37.171Z,7.82
2023-03-13T08:51:06.064Z,6.60
2023-03-13T08:53:34.589Z,5.50
2023-03-13T08:56:01.671Z,8.75
2023-03-13T08:58:28.507Z,8.40
2023-03-13T09:00:58.854Z,10.18
2023-03-13T09:03:25.485Z,7.03
2023-03-13T09:05:56.546Z,7.10
2023-03-13T09:08:23.691Z,7.88
2023-03-13T09:10:57.028Z,8.15
2023-03-13T09:13:26.050Z,8.77
2023-03-13T09:16:06.226Z,7.53
2023-03-13T09:18:33.961Z,10.48
2023-03-13T09:21:01.508Z,7.90
2023-03-13T09:23:28.382Z,6.88
2023-03-13T09:25:56.867Z,9.13
2023-03-13T09:28:25.527Z,9.18
2023-03-13T09:30:53.770Z,8.50
2023-03-13T09:33:24.018Z,10.55
2023-03-13T09:35:53.634Z,10.77
2023-03-13T09:38:21.807Z,11.55
2023-03-13T09:41:05.339Z,9.57
2023-03-13T09:43:44.659Z,12.77
2023-03-13T09:46:37.621Z,8.00
2023-03-13T09:49:23.462Z,7.93
2023-03-13T09:52:19.560Z,9.60
2023-03-13T09:55:10.170Z,6.40
2023-03-13T09:57:40.096Z,11.65
2023-03-13T10:00:14.864Z,8.75
2023-03-13T10:02:48.226Z,10.23
2023-03-13T10:05:22.061Z,10.30
2023-03-13T10:07:49.650Z,8.60
2023-03-13T10:10:21.359Z,8.00
2023-03-13T10:12:52.310Z,10.52
2023-03-13T10:15:34.388Z,9.70
2023-03-13T10:18:14.005Z,9.02
2023-03-13T10:20:44.831Z,10.57
2023-03-13T10:23:37.073Z,11.48
2023-03-13T10:26:03.925Z,8.18
2023-03-13T10:28:30.760Z,8.95
2023-03-13T10:31:22.617Z,9.23
2023-03-13T10:33:49.316Z,7.18
2023-03-13T10:36:16.076Z,9.98
2023-03-13T10:38:51.864Z,9.75
2023-03-13T10:41:25.817Z,6.85
2023-03-13T10:44:00.458Z,8.70
2023-03-13T10:46:32.962Z,7.80
2023-03-13T10:49:05.315Z,9.70
2023-03-13T10:51:40.282Z,7.55
2023-03-13T10:54:26.019Z,7.70
2023-03-13T10:57:07.881Z,7.75
2023-03-13T10:59:41.484Z,6.93
2023-03-13T11:02:28.536Z,6.93
2023-03-13T11:04:56.278Z,4.18
2023-03-13T11:07:33.405Z,6.43
2023-03-13T11:10:25.255Z,4.30
2023-03-13T11:12:58.410Z,4.63
2023-03-13T11:15:37.349Z,3.75
2023-03-13T11:18:18.656Z,2.75
2023-03-13T11:20:47.067Z,6.97
2023-03-13T11:23:16.932Z,7.55
2023-03-13T11:25:57.978Z,4.20
2023-03-13T11:28:49.258Z,4.07
2023-03-13T11:31:39.384Z,3.55
2023-03-13T11:34:24.001Z,3.80
2023-03-13T11:37:12.539Z,5.57
2023-03-13T11:40:07.297Z,3.08
2023-03-13T11:42:45.999Z,2.33
2023-03-13T11:45:49.622Z,3.45
2023-03-13T11:48:34.282Z,2.35
2023-03-13T11:51:13.724Z,2.72
2023-03-13T11:54:05.388Z,5.32
2023-03-13T11:56:43.970Z,2.58
2023-03-13T11:59:27.083Z,4.53
2023-03-13T12:02:00.226Z,1.60
2023-03-13T12:04:37.022Z,3.15
2023-03-13T12:07:10.830Z,4.72
2023-03-13T12:09:45.980Z,3.63
2023-03-13T12:12:17.331Z,2.72
2023-03-13T12:14:52.426Z,2.80
2023-03-13T12:17:36.445Z,3.45
2023-03-13T12:20:09.294Z,4.93
2023-03-13T12:22:42.942Z,3.28
2023-03-13T12:25:21.456Z,3.47
2023-03-13T12:27:54.120Z,2.28
2023-03-13T12:30:39.510Z,2.42
2023-03-13T12:33:25.754Z,3.28
2023-03-13T12:36:06.155Z,2.25
2023-03-13T12:39:08.337Z,3.17
2023-03-13T12:42:02.257Z,2.25
2023-03-13T12:44:31.463Z,1.80
2023-03-13T12:47:19.376Z,3.10
2023-03-13T12:49:46.082Z,2.28
2023-03-13T12:52:28.011Z,2.60
2023-03-13T12:55:10.407Z,4.20
2023-03-13T12:58:03.439Z,4.53
2023-03-13T13:00:31.609Z,2.92
2023-03-13T13:03:28.388Z,3.30
2023-03-13T13:06:22.216Z,4.95
2023-03-13T13:09:10.833Z,2.38
2023-03-13T13:11:45.243Z,2.00
2023-03-13T13:14:19.840Z,2.45
2023-03-13T13:16:59.851Z,5.15
2023-03-13T13:19:30.304Z,5.10
2023-03-13T13:22:41.081Z,6.25
2023-03-13T13:25:10.948Z,2.92
2023-03-13T13:27:47.800Z,2.78
2023-03-13T13:30:17.462Z,2.67
2023-03-13T13:32:49.325Z,4.43
2023-03-13T13:35:35.326Z,2.65
2023-03-13T13:38:27.055Z,2.90
2023-03-13T13:41:13.272Z,2.90
2023-03-13T13:43:44.366Z,1.50
2023-03-13T13:46:33.647Z,1.58
2023-03-13T13:49:06.957Z,4.70
2023-03-13T13:51:37.397Z,2.80
2023-03-13T13:54:42.403Z,2.15
2023-03-13T13:57:35.816Z,4.63
2023-03-13T14:00:24.434Z,1.83
2023-03-13T14:02:54.438Z,1.70
2023-03-13T14:05:31.846Z,1.83
2023-03-13T14:08:22.883Z,2.00
2023-03-13T14:11:03.624Z,3.90
2023-03-13T14:13:32.724Z,3.88
2023-03-13T14:16:25.427Z,1.52
2023-03-13T14:18:53.199Z,2.20
2023-03-13T14:21:24.606Z,2.20
2023-03-13T14:23:51.780Z,4.00
2023-03-13T14:26:20.312Z,1.67
2023-03-13T14:28:49.505Z,3.75
2023-03-13T14:31:37.720Z,3.60
2023-03-13T14:34:10.389Z,4.72
2023-03-13T14:37:29.919Z,2.45
2023-03-13T14:40:09.454Z,2.10
2023-03-13T14:42:48.772Z,3.30
2023-03-13T14:45:37.170Z,5.28
2023-03-13T14:48:17.359Z,5.68
2023-03-13T14:50:44.189Z,2.53
2023-03-13T14:53:18.881Z,2.65
2023-03-13T14:55:46.020Z,4.53
2023-03-13T14:58:19.459Z,1.25
2023-03-13T15:00:49.180Z,1.88
2023-03-13T15:03:16.784Z,3.55
2023-03-13T15:05:48.547Z,3.33
2023-03-13T15:08:21.246Z,2.25
2023-03-13T15:10:49.578Z,1.98
2023-03-13T15:13:40.520Z,1.90
2023-03-13T15:16:20.297Z,5.35
2023-03-13T15:18:47.599Z,3.70
2023-03-13T15:21:14.654Z,4.13
2023-03-13T15:23:43.347Z,3.65
2023-03-13T15:26:12.668Z,1.50
2023-03-13T15:28:39.268Z,1.80
2023-03-13T15:31:09.464Z,2.33
2023-03-13T15:33:36.663Z,1.55
2023-03-13T15:36:06.953Z,3.33
2023-03-13T15:38:33.976Z,1.58
2023-03-13T15:41:00.805Z,2.67
2023-03-13T15:43:27.918Z,2.30
2023-03-13T15:45:54.757Z,2.08
2023-03-13T15:48:28.008Z,3.13
2023-03-13T15:50:58.626Z,2.40
2023-03-13T15:53:31.733Z,4.03
2023-03-13T15:56:01.219Z,4.10
2023-03-13T15:58:29.492Z,3.53
2023-03-13T16:01:00.706Z,1.77
2023-03-13T16:03:28.930Z,2.25
2023-03-13T16:05:57.089Z,1.77
2023-03-13T16:08:35.304Z,2.78
2023-03-13T16:11:06.665Z,3.78
2023-03-13T16:13:33.324Z,5.07
2023-03-13T16:16:02.214Z,1.33
2023-03-13T16:18:29.857Z,0.88
2023-03-13T16:20:56.543Z,3.83
2023-03-13T16:23:23.161Z,2.13
2023-03-13T16:25:51.786Z,2.30
2023-03-13T16:28:18.442Z,2.80
2023-03-13T16:30:47.473Z,1.83
2023-03-13T16:33:14.220Z,2.58
2023-03-13T16:35:40.930Z,4.47
2023-03-13T16:38:11.120Z,2.03
2023-03-13T16:40:38.022Z,2.00
2023-03-13T16:43:04.681Z,4.38
2023-03-13T16:45:31.338Z,1.88
2023-03-13T16:47:58.173Z,2.65
2023-03-13T16:50:36.548Z,4.72
2023-03-13T16:53:04.209Z,2.97
2023-03-13T16:55:36.842Z,1.05
2023-03-13T16:58:04.538Z,2.55
2023-03-13T17:00:33.886Z,6.28
2023-03-13T17:03:01.698Z,3.72
2023-03-13T17:05:28.748Z,1.75
2023-03-13T17:07:56.114Z,1.90
2023-03-13T17:10:37.514Z,1.88
2023-03-13T17:13:05.718Z,2.38
2023-03-13T17:15:32.692Z,2.78
2023-03-13T17:17:59.332Z,5.10
2023-03-13T17:20:32.991Z,2.15
2023-03-13T17:23:01.116Z,4.45
2023-03-13T17:25:27.813Z,1.10
2023-03-13T17:27:54.831Z,2.70
2023-03-13T17:30:27.595Z,3.13
2023-03-13T17:32:54.589Z,2.42
2023-03-13T17:35:22.051Z,2.15
2023-03-13T17:37:49.276Z,5.75
2023-03-13T17:40:20.523Z,1.83
2023-03-13T17:42:47.562Z,3.78
2023-03-13T17:45:16.688Z,3.08
2023-03-13T17:47:46.396Z,3.50
2023-03-13T17:50:23.385Z,3.08
2023-03-13T17:52:54.431Z,2.22
2023-03-13T17:55:22.495Z,3.50
2023-03-13T17:57:49.410Z,4.95
2023-03-13T18:00:30.136Z,2.05
2023-03-13T18:02:57.661Z,3.50
2023-03-13T18:05:25.054Z,5.50
2023-03-13T18:07:58.308Z,4.32
2023-03-13T18:10:30.235Z,4.70
2023-03-13T18:12:57.401Z,2.47
2023-03-13T18:15:26.000Z,3.35
2023-03-13T18:17:53.112Z,4.43
2023-03-13T18:20:26.839Z,3.92
2023-03-13T18:22:54.097Z,5.68
2023-03-13T18:25:20.934Z,7.45
2023-03-13T18:27:47.681Z,5.10
2023-03-13T18:30:20.263Z,6.30
2023-03-13T18:32:49.798Z,5.47
2023-03-13T18:35:19.608Z,5.55
2023-03-13T18:37:48.178Z,7.57
2023-03-13T18:40:26.253Z,5.15
2023-03-13T18:42:53.115Z,4.97
2023-03-13T18:45:23.694Z,11.05
2023-03-13T18:47:50.418Z,4.82
2023-03-13T18:50:29.721Z,10.93
2023-03-13T18:52:58.319Z,4.72
2023-03-13T18:55:29.109Z,5.72
2023-03-13T18:57:56.680Z,7.68
2023-03-13T19:00:27.561Z,3.67
2023-03-13T19:02:54.305Z,4.18
2023-03-13T19:05:22.598Z,5.53
2023-03-13T19:07:49.647Z,8.52
2023-03-13T19:10:33.082Z,7.53
2023-03-13T19:12:59.716Z,5.78
2023-03-13T19:15:31.306Z,8.30
2023-03-13T19:18:03.477Z,3.40
2023-03-13T19:20:31.450Z,5.78
2023-03-13T19:23:00.923Z,7.30
2023-03-13T19:25:31.857Z,6.47
2023-03-13T19:27:58.444Z,10.77
2023-03-13T19:30:26.143Z,9.52
2023-03-13T19:32:56.401Z,5.95
2023-03-13T19:35:32.021Z,20.23
2023-03-13T19:38:00.464Z,6.90
2023-03-13T19:40:30.640Z,7.15
2023-03-13T19:42:58.209Z,11.38
2023-03-13T19:45:27.277Z,5.80
2023-03-13T19:47:54.128Z,7.90
2023-03-13T19:50:23.835Z,7.93
2023-03-13T19:52:50.620Z,9.60
2023-03-13T19:55:17.435Z,7.32
2023-03-13T19:57:44.967Z,9.90
2023-03-13T20:00:23.685Z,9.15
2023-03-13T20:02:52.354Z,4.22
2023-03-13T20:05:19.120Z,10.05
2023-03-13T20:07:46.828Z,9.65
2023-03-13T20:10:13.828Z,3.38
2023-03-13T20:12:42.107Z,15.90
2023-03-13T20:15:13.019Z,6.22
2023-03-13T20:17:40.360Z,8.88
2023-03-13T20:20:10.303Z,8.95
2023-03-13T20:22:38.874Z,9.35
2023-03-13T20:25:05.809Z,11.15
2023-03-13T20:27:35.616Z,9.02
2023-03-13T20:30:03.075Z,13.73
2023-03-13T20:32:30.316Z,8.93
2023-03-13T20:35:00.804Z,8.48
2023-03-13T20:37:30.016Z,4.95
2023-03-13T20:39:56.630Z,3.20
2023-03-13T20:42:24.049Z,7.80
2023-03-13T20:44:50.697Z,9.13
2023-03-13T20:47:19.884Z,4.28
2023-03-13T20:49:46.584Z,6.60
2023-03-13T20:52:13.542Z,10.82
2023-03-13T20:54:40.615Z,7.05
2023-03-13T20:57:08.917Z,7.18
2023-03-13T20:59:35.598Z,7.78
2023-03-13T21:02:04.893Z,7.40
2023-03-13T21:04:32.023Z,11.85
2023-03-13T21:07:07.293Z,6.90
2023-03-13T21:09:49.947Z,6.35
2023-03-13T21:12:16.739Z,1.85
2023-03-13T21:14:45.197Z,5.25
2023-03-13T21:17:13.706Z,4.30
2023-03-13T21:19:47.962Z,8.25
2023-03-13T21:22:14.683Z,6.50
2023-03-13T21:24:41.784Z,5.43
2023-03-13T21:27:08.388Z,5.30
2023-03-13T21:29:34.962Z,4.80
2023-03-13T21:32:02.617Z,4.82
2023-03-13T21:34:29.436Z,5.18
2023-03-13T21:36:56.073Z,7.45
2023-03-13T21:39:23.050Z,2.38
2023-03-13T21:41:49.913Z,4.40
2023-03-13T21:44:19.854Z,4.10
2023-03-13T21:46:48.742Z,6.00
2023-03-13T21:49:15.718Z,8.25
2023-03-13T21:51:42.399Z,8.35
2023-03-13T21:54:09.046Z,9.05
2023-03-13T21:56:35.785Z,4.13
2023-03-13T21:59:02.597Z,6.82
2023-03-13T22:01:29.263Z,4.13
2023-03-13T22:03:55.879Z,6.05
2023-03-13T22:06:22.823Z,7.20
2023-03-13T22:08:50.876Z,4.53
2023-03-13T22:11:17.974Z,3.53
2023-03-13T22:13:44.701Z,4.18
2023-03-13T22:16:12.076Z,6.80
2023-03-13T22:18:39.936Z,8.25
2023-03-13T22:21:06.928Z,6.15
2023-03-13T22:23:33.903Z,3.70
2023-03-13T22:26:00.597Z,5.25
2023-03-13T22:28:27.866Z,3.53
2023-03-13T22:30:54.445Z,3.70
2023-03-13T22:33:21.426Z,9.23
2023-03-13T22:35:52.203Z,7.97
2023-03-13T22:38:20.353Z,10.38
2023-03-13T22:40:48.072Z,8.55
2023-03-13T22:43:15.101Z,6.25
2023-03-13T22:45:41.734Z,4.65
2023-03-13T22:48:08.537Z,4.93
2023-03-13T22:50:36.316Z,7.35
2023-03-13T22:53:03.489Z,1.85
2023-03-13T22:55:32.304Z,4.22
2023-03-13T22:57:59.392Z,3.85
2023-03-13T23:00:26.453Z,6.10
2023-03-13T23:02:54.746Z,2.75
2023-03-13T23:05:21.761Z,4.18
2023-03-13T23:07:50.683Z,5.65
2023-03-13T23:10:18.872Z,8.40
2023-03-13T23:12:45.490Z,5.35
2023-03-13T23:15:12.532Z,5.78
2023-03-13T23:17:39.434Z,7.38
2023-03-13T23:20:15.562Z,5.40
2023-03-13T23:22:44.245Z,6.13
2023-03-13T23:25:12.826Z,4.25
2023-03-13T23:27:40.520Z,6.28
2023-03-13T23:30:10.160Z,4.95
2023-03-13T23:32:38.729Z,4.78
2023-03-13T23:35:06.291Z,4.10
2023-03-13T23:37:33.377Z,6.28
2023-03-13T23:40:04.942Z,5.22
2023-03-13T23:42:31.829Z,7.03
2023-03-13T23:44:58.715Z,6.97
2023-03-13T23:47:25.505Z,11.57
2023-03-13T23:49:52.469Z,5.50
2023-03-13T23:52:19.285Z,5.90
2023-03-13T23:54:45.873Z,7.15
2023-03-13T23:57:12.894Z,4.78
2023-03-13T23:59:39.947Z,4.15
